createdAt,value
2024-05-09T00:09:02.511Z,13.68
2024-05-09T00:19:05.330Z,13.63
2024-05-09T00:29:09.115Z,13.55
2024-05-09T00:39:11.674Z,15.32
2024-05-09T00:49:14.631Z,13.82
2024-05-09T00:59:17.718Z,15.25
2024-05-09T01:09:20.315Z,14.95
2024-05-09T01:19:30.208Z,15.00
2024-05-09T01:29:32.904Z,15.95
2024-05-09T01:39:35.666Z,14.60
2024-05-09T01:49:40.231Z,13.70
2024-05-09T01:59:42.810Z,13.27
2024-05-09T02:09:45.304Z,14.00
2024-05-09T02:19:47.947Z,13.32
2024-05-09T02:29:50.578Z,12.75
2024-05-09T02:39:53.139Z,13.88
2024-05-09T02:49:56.508Z,13.95
2024-05-09T02:59:59.082Z,13.30
2024-05-09T03:10:01.834Z,14.45
2024-05-09T03:20:06.991Z,12.65
2024-05-09T03:30:15.580Z,12.23
2024-05-09T03:40:28.924Z,13.07
2024-05-09T03:50:35.694Z,13.38
2024-05-09T04:00:40.345Z,12.02
2024-05-09T04:10:43.293Z,12.35
2024-05-09T04:20:46.448Z,12.88
2024-05-09T04:30:49.614Z,13.00
2024-05-09T04:40:52.204Z,11.73
2024-05-09T04:50:55.037Z,12.45
2024-05-09T05:00:57.665Z,13.48
2024-05-09T05:11:00.475Z,11.98
2024-05-09T05:21:03.139Z,10.35
2024-05-09T05:31:05.857Z,10.65
2024-05-09T05:41:09.441Z,9.65
2024-05-09T05:51:12.447Z,10.50
2024-05-09T06:01:15.188Z,10.65
2024-05-09T06:11:18.009Z,11.15
2024-05-09T06:21:20.614Z,10.57
2024-05-09T06:31:24.264Z,10.98
2024-05-09T06:41:26.971Z,9.32
2024-05-09T06:51:29.606Z,9.43
2024-05-09T07:01:32.503Z,8.30
2024-05-09T07:11:35.322Z,8.32
2024-05-09T07:21:38.038Z,7.78
2024-05-09T07:31:40.692Z,7.28
2024-05-09T07:41:43.254Z,6.55
2024-05-09T07:53:17.359Z,7.43
2024-05-09T08:02:08.671Z,6.50
2024-05-09T08:12:13.158Z,6.57
2024-05-09T08:22:16.004Z,6.53
2024-05-09T08:32:18.775Z,6.15
2024-05-09T08:42:23.368Z,5.47
2024-05-09T08:52:26.434Z,5.85
2024-05-09T09:02:29.061Z,4.53
2024-05-09T09:12:32.089Z,3.92
2024-05-09T09:22:35.190Z,3.92
2024-05-09T09:32:37.925Z,4.03
2024-05-09T09:42:42.928Z,3.60
2024-05-09T09:52:46.262Z,3.88
2024-05-09T10:02:49.150Z,3.40
2024-05-09T10:12:56.881Z,2.97
2024-05-09T10:22:59.377Z,4.60
2024-05-09T10:33:02.124Z,3.03
2024-05-09T10:43:06.486Z,2.80
2024-05-09T10:53:09.184Z,3.30
2024-05-09T11:03:11.946Z,3.42
2024-05-09T11:13:14.952Z,3.72
2024-05-09T11:23:18.546Z,2.72
2024-05-09T11:33:21.922Z,3.58
2024-05-09T11:43:24.559Z,2.90
2024-05-09T11:53:27.252Z,2.53
2024-05-09T12:03:30.244Z,2.78
2024-05-09T12:13:33.127Z,2.47
2024-05-09T12:23:36.048Z,2.75
2024-05-09T12:33:38.878Z,2.97
2024-05-09T12:43:41.570Z,2.60
2024-05-09T12:53:44.584Z,2.25
2024-05-09T13:03:47.303Z,2.80
2024-05-09T13:13:49.936Z,2.60
2024-05-09T13:23:52.437Z,2.60
2024-05-09T13:33:55.195Z,2.40
2024-05-09T13:43:57.896Z,3.42
2024-05-09T13:54:00.584Z,2.42
2024-05-09T14:04:03.371Z,2.60
2024-05-09T14:14:06.030Z,2.35
2024-05-09T14:24:08.592Z,2.40
2024-05-09T14:34:11.591Z,2.40
2024-05-09T14:44:14.351Z,2.70
2024-05-09T14:54:17.407Z,3.08
2024-05-09T15:04:20.206Z,2.83
2024-05-09T15:14:23.004Z,2.60
2024-05-09T15:24:25.570Z,2.60
2024-05-09T15:34:29.617Z,2.50
2024-05-09T15:44:32.225Z,2.50
2024-05-09T15:54:35.102Z,2.95
2024-05-09T16:04:37.925Z,2.88
2024-05-09T16:14:41.146Z,2.70
2024-05-09T16:24:43.770Z,2.85
2024-05-09T16:34:46.373Z,2.83
2024-05-09T16:44:48.911Z,2.50
2024-05-09T16:54:52.395Z,2.70
2024-05-09T17:04:55.110Z,3.40
2024-05-09T17:15:03.245Z,2.75
2024-05-09T17:25:11.702Z,2.55
2024-05-09T17:35:26.459Z,2.70
2024-05-09T17:45:32.914Z,2.80
2024-05-09T17:55:41.819Z,2.63
2024-05-09T18:05:45.212Z,2.90
2024-05-09T18:15:57.496Z,3.28
2024-05-09T18:26:02.847Z,3.65
2024-05-09T18:36:07.864Z,4.45
2024-05-09T18:46:33.294Z,4.22
2024-05-09T18:56:37.607Z,4.28
2024-05-09T19:06:40.360Z,3.67
2024-05-09T19:16:43.446Z,3.72
2024-05-09T19:26:46.423Z,3.95
2024-05-09T19:36:49.786Z,3.83
2024-05-09T19:46:52.533Z,4.75
2024-05-09T19:56:56.555Z,5.20
2024-05-09T20:06:59.546Z,5.32
2024-05-09T20:17:02.395Z,3.92
2024-05-09T20:27:05.396Z,6.70
2024-05-09T20:37:09.200Z,6.20
2024-05-09T20:47:18.675Z,6.00
2024-05-09T20:57:27.475Z,6.00
2024-05-09T21:07:30.047Z,5.95
2024-05-09T21:17:32.813Z,6.00
2024-05-09T21:27:36.548Z,6.22
2024-05-09T21:37:41.549Z,6.13
2024-05-09T21:47:44.373Z,6.55
2024-05-09T21:57:47.343Z,6.43
2024-05-09T22:07:49.958Z,5.50
2024-05-09T22:17:52.681Z,6.00
2024-05-09T22:27:59.718Z,6.53
2024-05-09T22:38:07.647Z,6.25
2024-05-09T22:48:10.545Z,6.53
2024-05-09T22:58:17.728Z,5.85
2024-05-09T23:08:20.875Z,6.93
2024-05-09T23:18:24.778Z,6.13
2024-05-09T23:28:28.077Z,6.50
2024-05-09T23:38:30.775Z,7.00
2024-05-09T23:48:33.946Z,7.07
2024-05-09T23:58:36.970Z,5.82
